Time;durP1;ratioP1;P1;durP2;ratioP2;P2;SDS_P1;SDS_P2;PMS_P1;PMS_P2;Temp;Humidity;BMP_temperature;BMP_pressure;BME280_temperature;BME280_humidity;BME280_pressure;Samples;Min_cycle;Max_cycle;Signal;HPM_P1;HPM_P2
2023/07/29 00:02:23;;;;;;;5.00;2.45;;;;;;;27.00;42.89;99251.81;4498834;31;34275;-69
2023/07/29 00:04:51;;;;;;;4.55;2.40;;;;;;;27.00;42.85;99254.53;4498924;31;33884;-70
2023/07/29 00:07:18;;;;;;;4.93;2.65;;;;;;;26.99;42.88;99250.97;4498635;31;34152;-70
2023/07/29 00:09:46;;;;;;;4.37;2.45;;;;;;;26.99;42.91;99255.63;4498757;31;34339;-67
2023/07/29 00:12:13;;;;;;;5.03;2.83;;;;;;;26.99;42.95;99255.63;4498764;31;34104;-69
2023/07/29 00:14:41;;;;;;;5.22;2.92;;;;;;;26.98;43.01;99246.59;4498492;31;34782;-70
2023/07/29 00:17:08;;;;;;;5.55;2.50;;;;;;;26.96;42.98;99244.13;4498711;31;34294;-70
2023/07/29 00:19:36;;;;;;;5.40;3.00;;;;;;;26.96;42.97;99246.87;4498713;31;34389;-70
2023/07/29 00:22:04;;;;;;;4.97;2.45;;;;;;;26.96;42.97;99246.06;4486508;31;34043;-69
2023/07/29 00:24:32;;;;;;;4.03;2.42;;;;;;;26.96;42.98;99240.56;4485170;32;34801;-70
2023/07/29 00:26:59;;;;;;;4.00;2.37;;;;;;;26.95;43.00;99236.16;4485414;32;34677;-71
2023/07/29 00:29:27;;;;;;;5.78;2.55;;;;;;;26.95;43.02;99238.91;4485017;32;34413;-71
2023/07/29 00:31:54;;;;;;;4.43;2.70;;;;;;;26.94;42.99;99240.81;4484952;32;34659;-72
2023/07/29 00:34:22;;;;;;;4.60;2.78;;;;;;;26.93;42.99;99233.69;4498461;31;34918;-72
2023/07/29 00:36:50;;;;;;;4.90;2.60;;;;;;;26.93;42.94;99241.91;4500700;31;34918;-71
2023/07/29 00:39:19;;;;;;;4.93;2.50;;;;;;;26.93;42.97;99236.44;4500859;31;34487;-72
2023/07/29 00:41:47;;;;;;;3.87;2.30;;;;;;;26.92;42.99;99239.44;4500554;31;34281;-72
2023/07/29 00:44:14;;;;;;;4.32;2.50;;;;;;;26.92;42.98;99234.78;4500678;31;33772;-70
2023/07/29 00:46:42;;;;;;;4.93;2.78;;;;;;;26.92;43.00;99242.19;4500869;31;34291;-71
2023/07/29 00:49:09;;;;;;;4.15;2.45;;;;;;;26.91;43.00;99243.28;4499645;31;33644;-72
2023/07/29 00:51:37;;;;;;;5.85;2.65;;;;;;;26.89;42.98;99234.50;4499613;31;34764;-72
2023/07/29 00:54:04;;;;;;;5.80;2.92;;;;;;;26.88;42.99;99239.16;4500855;31;34141;-72
2023/07/29 00:56:32;;;;;;;4.80;2.60;;;;;;;26.88;42.94;99235.59;4499579;31;34051;-71
2023/07/29 00:59:01;;;;;;;5.22;2.72;;;;;;;26.87;42.91;99232.03;4499223;31;34160;-69
2023/07/29 01:01:29;;;;;;;4.30;2.58;;;;;;;26.87;42.85;99228.47;4499752;31;34551;-65
2023/07/29 01:03:57;;;;;;;4.80;2.45;;;;;;;26.87;42.84;99223.00;4486431;31;34743;-70
2023/07/29 01:06:53;;;;;;;4.45;2.50;;;;;;;26.87;42.90;99225.72;4499331;31;33837;-69
2023/07/29 01:09:43;;;;;;;4.93;2.60;;;;;;;26.86;42.96;99229.53;4500288;31;33686;-69
2023/07/29 01:12:51;;;;;;;5.60;2.65;;;;;;;26.83;42.95;99228.16;4499534;31;33961;-70
2023/07/29 01:15:22;;;;;;;4.35;2.50;;;;;;;26.84;42.87;99221.59;4500607;31;34580;-69
2023/07/29 01:17:53;;;;;;;6.50;2.67;;;;;;;26.80;42.87;99222.38;4486246;31;34006;-70
2023/07/29 01:20:21;;;;;;;3.65;2.20;;;;;;;26.80;42.95;99219.66;4499278;31;34444;-70
2023/07/29 01:22:48;;;;;;;4.37;2.33;;;;;;;26.80;42.96;99219.66;4500549;31;33621;-70
2023/07/29 01:25:16;;;;;;;5.20;2.47;;;;;;;26.80;43.00;99225.94;4499198;31;34045;-70
2023/07/29 01:27:48;;;;;;;3.67;2.10;;;;;;;26.78;43.04;99225.38;4499211;31;35192;-70
2023/07/29 01:30:15;;;;;;;4.68;2.55;;;;;;;26.78;43.06;99227.31;4500497;31;33656;-70
2023/07/29 01:32:57;;;;;;;4.20;2.37;;;;;;;26.78;43.05;99224.56;4499109;31;34592;-69
2023/07/29 01:35:28;;;;;;;5.55;2.40;;;;;;;26.79;43.00;99232.50;4499662;31;33865;-70
2023/07/29 01:38:11;;;;;;;5.30;2.40;;;;;;;26.76;43.11;99229.47;4500267;31;34065;-70
2023/07/29 01:40:38;;;;;;;4.40;2.47;;;;;;;26.74;43.09;99232.47;4499131;31;33707;-70
2023/07/29 01:43:08;;;;;;;4.30;2.40;;;;;;;26.76;43.14;99229.47;4486047;31;34702;-69
2023/07/29 01:45:37;;;;;;;5.82;2.58;;;;;;;26.74;43.12;99232.47;4499255;31;33680;-70
2023/07/29 01:48:06;;;;;;;4.65;2.40;;;;;;;26.74;43.12;99239.87;4500369;31;34897;-69
2023/07/29 01:50:36;;;;;;;4.95;2.58;;;;;;;26.71;43.07;99242.03;4499091;31;34353;-70
2023/07/29 01:53:04;;;;;;;4.60;2.60;;;;;;;26.73;42.93;99249.16;4500299;31;33865;-69
2023/07/29 01:55:32;;;;;;;4.05;2.22;;;;;;;26.70;42.90;99243.12;4500296;31;34058;-69
2023/07/29 01:57:59;;;;;;;6.00;2.97;;;;;;;26.69;42.88;99236.00;4500205;31;34596;-70
2023/07/29 02:00:27;;;;;;;4.78;2.40;;;;;;;26.69;42.83;99237.91;4500464;31;34340;-67
2023/07/29 02:02:55;;;;;;;5.65;2.60;;;;;;;26.69;42.78;99236.00;4500318;31;33567;-70
2023/07/29 02:05:22;;;;;;;4.62;2.47;;;;;;;26.68;42.75;99226.16;4500182;31;33592;-69
2023/07/29 02:07:50;;;;;;;4.60;2.60;;;;;;;26.67;42.72;99227.25;4500111;31;34086;-69
2023/07/29 02:10:18;;;;;;;4.93;2.65;;;;;;;26.66;42.69;99224.75;4500231;31;33557;-70
2023/07/29 02:12:46;;;;;;;4.10;2.33;;;;;;;26.65;42.63;99223.09;4500164;31;33865;-69
2023/07/29 02:15:13;;;;;;;7.12;2.78;;;;;;;26.64;42.61;99230.50;4500218;31;34974;-70
2023/07/29 02:17:41;;;;;;;4.85;2.62;;;;;;;26.63;42.57;99223.37;4500198;31;34806;-70
2023/07/29 02:20:10;;;;;;;4.68;2.50;;;;;;;26.64;42.52;99222.28;4499202;31;34405;-70
2023/07/29 02:22:38;;;;;;;4.93;2.67;;;;;;;26.63;42.52;99223.37;4484646;32;33872;-70
2023/07/29 02:25:06;;;;;;;5.20;3.00;;;;;;;26.63;42.51;99228.84;4484411;32;33985;-71
2023/07/29 02:27:33;;;;;;;4.75;2.40;;;;;;;26.61;42.47;99225.53;4484606;32;34211;-72
2023/07/29 02:30:02;;;;;;;4.22;2.37;;;;;;;26.61;42.43;99233.72;4484236;32;33381;-70
2023/07/29 02:32:29;;;;;;;6.78;2.70;;;;;;;26.61;42.43;99232.91;4484240;31;32890;-69
2023/07/29 02:34:57;;;;;;;4.30;2.30;;;;;;;26.60;42.45;99232.09;4484133;32;34026;-69
2023/07/29 02:37:25;;;;;;;5.35;2.85;;;;;;;26.59;42.51;99227.72;4484514;32;34234;-70
2023/07/29 02:39:53;;;;;;;6.12;2.78;;;;;;;26.58;42.46;99233.44;4483067;32;34427;-70
2023/07/29 02:42:21;;;;;;;5.20;2.50;;;;;;;26.58;42.46;99227.94;4484059;32;34786;-69
2023/07/29 02:44:49;;;;;;;4.60;2.42;;;;;;;26.56;42.44;99236.44;4484032;32;33955;-66
2023/07/29 02:47:16;;;;;;;5.07;2.80;;;;;;;26.56;42.43;99233.69;4483946;32;34162;-70
2023/07/29 02:49:44;;;;;;;4.47;2.60;;;;;;;26.55;42.46;99231.22;4484125;32;33749;-71
2023/07/29 02:52:11;;;;;;;4.60;2.50;;;;;;;26.56;42.45;99238.34;4484391;32;33916;-71
2023/07/29 02:54:39;;;;;;;4.55;2.47;;;;;;;26.55;42.45;99242.19;4483940;32;33691;-72
2023/07/29 02:57:07;;;;;;;3.75;2.25;;;;;;;26.53;42.46;99239.69;4484056;32;34131;-72
2023/07/29 02:59:34;;;;;;;4.82;2.10;;;;;;;26.52;42.47;99238.03;4499338;31;34350;-71
2023/07/29 03:02:02;;;;;;;5.28;2.25;;;;;;;26.52;42.48;99239.94;4499576;31;33870;-71
2023/07/29 03:04:30;;;;;;;3.80;2.22;;;;;;;26.51;42.46;99243.78;4499824;31;33960;-70
2023/07/29 03:07:01;;;;;;;4.87;2.40;;;;;;;26.51;42.47;99246.50;4499761;31;34927;-68
2023/07/29 03:09:28;;;;;;;4.57;2.40;;;;;;;26.51;42.44;99246.50;4499799;31;34246;-69
2023/07/29 03:11:56;;;;;;;4.43;2.33;;;;;;;26.50;42.41;99251.16;4499976;31;33893;-70
2023/07/29 03:14:24;;;;;;;7.40;3.12;;;;;;;26.48;42.45;99255.22;4499622;31;34058;-70
2023/07/29 03:16:52;;;;;;;5.47;2.50;;;;;;;26.47;42.49;99246.19;4499401;31;34802;-69
2023/07/29 03:19:20;;;;;;;4.62;2.53;;;;;;;26.45;42.52;99248.38;4499677;31;33785;-70
2023/07/29 03:21:47;;;;;;;5.65;2.75;;;;;;;26.46;42.48;99244.56;4488970;31;33911;-70
2023/07/29 03:24:15;;;;;;;4.57;2.37;;;;;;;26.45;42.50;99240.19;4483498;32;33958;-70
2023/07/29 03:26:43;;;;;;;4.85;2.30;;;;;;;26.44;42.48;99241.28;4482484;32;33731;-70
2023/07/29 03:29:13;;;;;;;;;;;;;;;26.45;42.48;99242.91;4483982;32;33766;-70
2023/07/29 03:31:40;;;;;;;4.78;2.30;;;;;;;26.53;42.30;99244.31;4483390;32;34127;-70
2023/07/29 03:34:10;;;;;;;4.07;2.50;;;;;;;26.45;42.44;99245.66;4483883;32;33909;-62
2023/07/29 03:36:38;;;;;;;;;;;;;;;26.42;42.56;99243.38;4484138;32;33752;-66
2023/07/29 03:39:05;;;;;;;5.47;2.42;;;;;;;26.51;42.36;99233.66;4483475;32;33126;-61
2023/07/29 03:41:33;;;;;;;5.03;2.72;;;;;;;26.43;42.45;99234.13;4483399;32;34007;-63
2023/07/29 03:44:00;;;;;;;4.50;2.62;;;;;;;26.40;42.47;99238.19;4483428;32;34147;-60
2023/07/29 03:46:28;;;;;;;4.62;2.80;;;;;;;26.38;42.44;99240.34;4481904;32;34333;-62
2023/07/29 03:48:56;;;;;;;4.70;2.70;;;;;;;26.38;42.45;99245.00;4483717;32;33683;-61
2023/07/29 03:51:24;;;;;;;4.82;2.70;;;;;;;26.37;42.39;99257.03;4483098;32;33798;-60
2023/07/29 03:53:52;;;;;;;7.60;2.80;;;;;;;26.37;42.42;99249.62;4483332;32;34263;-62
2023/07/29 03:56:20;;;;;;;5.07;3.08;;;;;;;26.36;42.47;99256.19;4483188;32;34702;-61
2023/07/29 03:58:49;;;;;;;7.53;2.65;;;;;;;26.37;42.46;99246.91;4485237;32;33695;-63
2023/07/29 04:01:17;;;;;;;4.68;2.67;;;;;;;26.36;42.44;99250.72;4485420;32;34627;-62
2023/07/29 04:03:46;;;;;;;4.87;3.03;;;;;;;26.37;42.43;99249.62;4485483;32;33833;-63
2023/07/29 04:06:14;;;;;;;5.47;2.80;;;;;;;26.36;42.41;99242.53;4484223;32;33959;-64
2023/07/29 04:08:41;;;;;;;5.47;2.85;;;;;;;26.38;42.41;99242.25;4485584;32;33538;-63
2023/07/29 04:11:09;;;;;;;4.82;2.67;;;;;;;26.37;42.45;99243.34;4471115;32;33510;-63
2023/07/29 04:13:37;;;;;;;4.60;2.53;;;;;;;26.36;42.50;99249.91;4470968;32;34853;-63
2023/07/29 04:16:05;;;;;;;5.18;3.05;;;;;;;26.36;42.52;99250.72;4485220;32;33864;-65
2023/07/29 04:18:33;;;;;;;4.97;2.80;;;;;;;26.36;42.58;99258.94;4484046;32;32513;-62
2023/07/29 04:21:00;;;;;;;5.85;2.85;;;;;;;26.37;42.62;99259.75;4489284;31;33958;-65
2023/07/29 04:23:28;;;;;;;5.75;2.80;;;;;;;26.37;42.66;99255.13;4500849;31;34093;-65
2023/07/29 04:25:56;;;;;;;5.75;2.90;;;;;;;26.36;42.69;99258.12;4501003;31;34591;-62
2023/07/29 04:28:23;;;;;;;5.32;2.58;;;;;;;26.36;42.71;99258.94;4500652;31;33568;-62
2023/07/29 04:30:51;;;;;;;4.80;2.75;;;;;;;26.36;42.73;99258.12;4500757;31;33942;-63
2023/07/29 04:33:19;;;;;;;5.30;3.03;;;;;;;26.36;42.76;99252.66;4500930;31;34164;-63
2023/07/29 04:35:46;;;;;;;4.10;2.55;;;;;;;26.35;42.77;99253.75;4500697;31;33845;-65
2023/07/29 04:38:14;;;;;;;5.12;2.95;;;;;;;26.35;42.80;99251.81;4501092;31;33821;-64
2023/07/29 04:40:41;;;;;;;6.78;2.78;;;;;;;26.36;42.83;99253.47;4500859;31;34056;-65
2023/07/29 04:43:09;;;;;;;4.62;2.67;;;;;;;26.36;42.84;99249.91;4500659;31;33679;-65
2023/07/29 04:45:41;;;;;;;5.40;2.80;;;;;;;26.35;42.86;99245.53;4499585;31;34317;-67
2023/07/29 04:48:09;;;;;;;6.03;2.42;;;;;;;26.35;42.90;99248.25;4499757;31;33926;-69
2023/07/29 04:50:37;;;;;;;5.47;2.87;;;;;;;26.36;42.90;99247.16;4500757;31;33570;-66
2023/07/29 04:53:04;;;;;;;4.95;3.17;;;;;;;26.35;42.97;99246.34;4500731;31;33817;-64
2023/07/29 04:55:33;;;;;;;6.32;2.90;;;;;;;26.36;42.95;99248.00;4500807;31;34160;-66
2023/07/29 04:58:00;;;;;;;4.57;2.70;;;;;;;26.35;42.96;99249.09;4500783;31;33500;-62
2023/07/29 05:00:27;;;;;;;5.25;2.67;;;;;;;26.37;43.05;99246.91;4500990;31;33873;-63
2023/07/29 05:02:55;;;;;;;5.03;3.00;;;;;;;26.38;43.11;99245.00;4500761;31;33972;-63
2023/07/29 05:05:23;;;;;;;5.60;3.17;;;;;;;26.37;43.11;99249.62;4500684;31;33731;-63
2023/07/29 05:07:51;;;;;;;6.00;3.28;;;;;;;26.38;43.10;99247.72;4500894;31;34654;-69
2023/07/29 05:10:19;;;;;;;5.12;3.10;;;;;;;26.39;43.07;99258.44;4500532;31;34585;-63
2023/07/29 05:12:46;;;;;;;6.78;3.50;;;;;;;26.39;42.94;99266.63;4500657;31;33684;-66
2023/07/29 05:15:14;;;;;;;5.18;2.62;;;;;;;26.40;43.12;99270.19;4499440;31;33036;-62
2023/07/29 05:17:42;;;;;;;6.30;3.00;;;;;;;26.40;43.16;99270.19;4500336;31;33733;-63
2023/07/29 05:20:10;;;;;;;6.12;2.58;;;;;;;26.40;43.23;99270.19;4500532;31;34473;-63
2023/07/29 05:22:37;;;;;;;4.82;3.03;;;;;;;26.40;43.38;99276.50;4500418;31;34013;-63
2023/07/29 05:25:06;;;;;;;6.45;2.80;;;;;;;26.40;43.40;99276.50;4500340;31;35070;-64
2023/07/29 05:27:33;;;;;;;4.85;2.70;;;;;;;26.40;43.37;99267.47;4500587;31;33221;-62
2023/07/29 05:30:01;;;;;;;5.25;2.90;;;;;;;26.41;43.31;99274.56;4500415;31;33931;-62
2023/07/29 05:32:30;;;;;;;3.92;2.37;;;;;;;26.43;43.37;99283.38;4500495;31;34040;-63
2023/07/29 05:34:57;;;;;;;12.07;3.20;;;;;;;26.44;43.36;99285.03;4500492;31;34799;-62
2023/07/29 05:37:24;;;;;;;4.35;2.78;;;;;;;26.45;43.37;99287.50;4500749;31;33342;-64
2023/07/29 05:39:52;;;;;;;6.57;2.78;;;;;;;26.45;43.42;99298.44;4500579;31;34855;-66
2023/07/29 05:42:20;;;;;;;6.28;2.70;;;;;;;26.47;43.71;99306.38;4500386;31;34028;-62
2023/07/29 05:44:47;;;;;;;5.82;2.75;;;;;;;26.48;43.90;99299.00;4500380;31;34198;-63
2023/07/29 05:47:15;;;;;;;5.25;2.83;;;;;;;26.49;43.73;99300.66;4500241;31;34406;-62
2023/07/29 05:49:43;;;;;;;5.15;2.90;;;;;;;26.49;44.01;99306.97;4500730;31;33864;-68
2023/07/29 05:52:10;;;;;;;6.70;3.33;;;;;;;26.50;43.97;99305.88;4500697;31;33546;-62
2023/07/29 05:54:38;;;;;;;5.25;2.65;;;;;;;26.50;43.95;99308.63;4500128;31;34042;-63
2023/07/29 05:57:06;;;;;;;5.90;2.83;;;;;;;26.52;43.90;99311.91;4500389;31;33467;-63
2023/07/29 05:59:33;;;;;;;5.43;2.83;;;;;;;26.53;44.08;99310.00;4500321;31;33933;-63
2023/07/29 06:02:01;;;;;;;6.75;3.20;;;;;;;26.54;44.13;99311.66;4500231;31;34766;-62
2023/07/29 06:04:30;;;;;;;6.75;2.92;;;;;;;26.55;44.14;99316.03;4500329;31;33880;-60
2023/07/29 06:06:57;;;;;;;5.70;3.00;;;;;;;26.56;44.51;99323.16;4500315;31;33626;-62
2023/07/29 06:09:25;;;;;;;6.72;2.97;;;;;;;26.54;45.04;99328.91;4500183;31;34898;-60
2023/07/29 06:11:53;;;;;;;6.03;2.90;;;;;;;26.56;44.93;99329.47;4500449;31;34154;-68
2023/07/29 06:14:22;;;;;;;5.35;2.90;;;;;;;26.57;44.78;99328.38;4500253;31;34559;-67
2023/07/29 06:16:49;;;;;;;4.72;2.70;;;;;;;26.58;44.81;99335.50;4500114;31;33795;-72
2023/07/29 06:19:20;;;;;;;6.43;3.20;;;;;;;26.57;44.89;99333.84;4500044;31;34010;-70
2023/07/29 06:21:48;;;;;;;5.97;2.47;;;;;;;26.58;44.76;99331.94;4499671;31;32948;-70
2023/07/29 06:24:15;;;;;;;5.82;3.00;;;;;;;26.59;44.73;99330.87;4499787;31;34093;-71
2023/07/29 06:26:43;;;;;;;4.62;2.65;;;;;;;26.59;44.81;99337.16;4500398;31;33727;-72
2023/07/29 06:29:11;;;;;;;4.82;2.75;;;;;;;26.60;44.85;99337.97;4500165;31;33833;-71
2023/07/29 06:31:38;;;;;;;4.47;2.65;;;;;;;26.62;44.91;99330.31;4500002;31;34873;-69
2023/07/29 06:34:06;;;;;;;6.30;2.80;;;;;;;26.62;44.99;99338.53;4500126;31;34349;-69
2023/07/29 06:36:33;;;;;;;6.87;2.70;;;;;;;26.62;44.97;99347.56;4500094;31;34265;-65
2023/07/29 06:39:01;;;;;;;5.80;2.85;;;;;;;26.63;45.13;99340.22;4499863;31;33886;-63
2023/07/29 06:41:30;;;;;;;4.55;2.55;;;;;;;26.61;45.04;99340.44;4498510;31;34957;-60
2023/07/29 06:43:58;;;;;;;4.40;2.67;;;;;;;26.63;45.29;99345.69;4491282;31;34059;-62
2023/07/29 06:46:26;;;;;;;5.25;2.87;;;;;;;26.66;45.30;99340.50;4491360;31;33315;-62
2023/07/29 06:48:53;;;;;;;5.15;3.10;;;;;;;26.70;45.23;99340.81;4492461;31;34000;-64
2023/07/29 06:51:21;;;;;;;3.58;2.37;;;;;;;26.71;45.32;99343.28;4491405;31;33890;-64
2023/07/29 06:53:48;;;;;;;4.43;2.42;;;;;;;26.72;45.24;99344.13;4489713;31;34510;-62
2023/07/29 06:56:16;;;;;;;5.07;2.67;;;;;;;26.71;45.16;99332.34;4490286;31;34307;-61
2023/07/29 06:58:44;;;;;;;4.53;2.80;;;;;;;26.74;45.17;99333.75;4482794;32;33905;-61
2023/07/29 07:01:11;;;;;;;4.47;2.60;;;;;;;26.75;45.14;99332.66;4484063;32;34870;-61
2023/07/29 07:03:39;;;;;;;4.78;2.62;;;;;;;26.76;45.11;99330.72;4483910;32;34767;-64
2023/07/29 07:06:07;;;;;;;5.03;2.53;;;;;;;26.76;45.25;99328.00;4483803;32;33664;-61
2023/07/29 07:08:34;;;;;;;8.10;3.00;;;;;;;26.79;45.24;99332.97;4483993;32;34074;-66
2023/07/29 07:11:03;;;;;;;5.23;2.77;;;;;;;26.81;45.14;99331.59;4483978;32;34036;-70
2023/07/29 07:13:31;;;;;;;5.00;2.92;;;;;;;26.83;45.39;99328.63;4483768;32;34157;-70
2023/07/29 07:15:58;;;;;;;4.87;2.97;;;;;;;26.88;45.40;99329.47;4483894;32;34092;-61
2023/07/29 07:18:26;;;;;;;5.57;3.00;;;;;;;26.87;45.37;99329.75;4483749;32;33930;-67
2023/07/29 07:20:54;;;;;;;5.72;3.20;;;;;;;26.90;45.39;99332.78;4491530;31;33921;-63
2023/07/29 07:23:21;;;;;;;4.95;3.00;;;;;;;26.93;45.41;99335.00;4483653;32;33719;-62
2023/07/29 07:25:50;;;;;;;6.35;3.35;;;;;;;27.00;45.31;99332.06;4485063;31;33282;-66
2023/07/29 07:28:17;;;;;;;4.82;2.90;;;;;;;27.00;45.30;99334.81;4498000;31;33805;-62
2023/07/29 07:30:45;;;;;;;6.18;2.75;;;;;;;27.03;45.16;99326.03;4499369;31;34048;-65
2023/07/29 07:33:13;;;;;;;4.93;2.60;;;;;;;27.05;45.14;99336.75;4500545;31;34937;-61
2023/07/29 07:35:42;;;;;;;4.07;2.37;;;;;;;27.04;45.21;99333.16;4500034;31;33166;-61
2023/07/29 07:38:09;;;;;;;4.82;2.78;;;;;;;27.05;45.32;99336.75;4501271;31;34004;-61
2023/07/29 07:40:37;;;;;;;4.25;2.53;;;;;;;27.05;45.38;99325.78;4501251;31;33898;-66
2023/07/29 07:43:05;;;;;;;5.07;3.00;;;;;;;27.06;45.31;99330.19;4499870;31;34246;-61
2023/07/29 07:45:32;;;;;;;5.18;2.97;;;;;;;27.07;45.15;99326.34;4501351;31;34227;-61
2023/07/29 07:48:00;;;;;;;7.68;3.22;;;;;;;27.09;45.16;99322.31;4501086;31;34675;-61
2023/07/29 07:50:29;;;;;;;8.77;2.95;;;;;;;27.08;45.19;99323.37;4500966;31;34499;-62
2023/07/29 07:52:57;;;;;;;5.70;3.22;;;;;;;27.09;45.17;99322.31;4499859;31;33980;-65
2023/07/29 07:55:24;;;;;;;4.93;2.72;;;;;;;27.14;45.04;99319.59;4501215;31;33668;-61
2023/07/29 07:57:52;;;;;;;4.22;2.67;;;;;;;27.13;45.14;99322.59;4501122;31;33832;-61
2023/07/29 08:00:19;;;;;;;4.45;2.83;;;;;;;27.14;45.21;99319.59;4501449;31;34901;-62
2023/07/29 08:02:47;;;;;;;4.30;2.37;;;;;;;27.17;45.10;99321.78;4501150;31;34085;-61
2023/07/29 08:05:15;;;;;;;4.82;2.65;;;;;;;27.20;44.88;99317.72;4500884;31;33825;-66
2023/07/29 08:07:42;;;;;;;6.55;3.12;;;;;;;27.25;44.68;99317.75;4501207;31;33811;-63
2023/07/29 08:10:10;;;;;;;5.30;2.95;;;;;;;27.26;44.64;99307.63;4501008;31;33910;-62
2023/07/29 08:12:38;;;;;;;8.15;2.80;;;;;;;27.25;44.71;99311.44;4500969;31;34841;-60
2023/07/29 08:15:06;;;;;;;5.07;2.87;;;;;;;27.29;44.82;99305.19;4501297;31;33624;-63
2023/07/29 08:17:36;;;;;;;6.25;3.12;;;;;;;27.30;44.79;99306.00;4500894;31;33634;-62
2023/07/29 08:20:04;;;;;;;5.15;2.70;;;;;;;27.29;44.81;99307.09;4500669;31;34590;-61
2023/07/29 08:22:31;;;;;;;3.80;2.42;;;;;;;27.28;44.82;99309.03;4485453;31;35058;-66
2023/07/29 08:24:59;;;;;;;5.95;2.90;;;;;;;27.33;44.72;99303.56;4483828;32;33513;-63
2023/07/29 08:27:27;;;;;;;5.25;2.33;;;;;;;27.33;44.70;99302.75;4484851;32;35124;-62
2023/07/29 08:29:54;;;;;;;4.37;2.45;;;;;;;27.33;44.70;99302.75;4484928;32;34810;-62
2023/07/29 08:32:22;;;;;;;4.72;2.50;;;;;;;27.30;44.74;99304.09;4484811;32;33931;-68
2023/07/29 08:34:49;;;;;;;3.47;2.22;;;;;;;27.34;44.52;99304.38;4484667;32;34159;-65
2023/07/29 08:37:18;;;;;;;4.87;2.45;;;;;;;27.35;44.42;99297.81;4485341;32;33795;-61
2023/07/29 08:39:46;;;;;;;4.62;2.78;;;;;;;27.39;44.16;99305.25;4484918;32;33928;-61
2023/07/29 08:42:14;;;;;;;6.72;2.40;;;;;;;27.35;44.27;99306.84;4484839;32;33813;-62
2023/07/29 08:44:43;;;;;;;7.55;2.80;;;;;;;27.33;44.29;99303.56;4470786;32;33650;-62
2023/07/29 08:47:11;;;;;;;3.78;2.17;;;;;;;27.34;44.21;99307.13;4483790;32;33818;-61
2023/07/29 08:49:39;;;;;;;3.62;2.40;;;;;;;27.35;43.84;99295.91;4485009;32;33647;-65
2023/07/29 08:52:07;;;;;;;3.87;2.00;;;;;;;27.34;43.78;99297.00;4483646;32;34138;-68
2023/07/29 08:54:34;;;;;;;4.03;2.40;;;;;;;27.33;43.70;99292.59;4483433;32;34554;-67
2023/07/29 08:57:02;;;;;;;3.17;1.75;;;;;;;27.33;43.57;99289.88;4470839;32;33896;-65
2023/07/29 08:59:30;;;;;;;3.62;2.25;;;;;;;27.34;43.63;99290.69;4483682;32;34099;-64
2023/07/29 09:01:57;;;;;;;5.53;2.70;;;;;;;27.35;43.53;99298.63;4488271;31;34208;-69
2023/07/29 09:04:25;;;;;;;6.70;2.47;;;;;;;27.33;43.81;99289.88;4485196;31;33749;-68
2023/07/29 09:06:53;;;;;;;4.82;2.30;;;;;;;27.32;43.89;99288.19;4484950;32;33817;-68
2023/07/29 09:09:21;;;;;;;5.30;2.65;;;;;;;27.32;43.99;99293.66;4483378;32;34003;-70
2023/07/29 09:11:49;;;;;;;3.62;2.05;;;;;;;27.31;44.04;99293.94;4484638;32;34944;-64
2023/07/29 09:14:16;;;;;;;3.90;2.40;;;;;;;27.30;44.06;99292.31;4483500;32;33536;-68
2023/07/29 09:16:44;;;;;;;7.65;2.45;;;;;;;27.29;44.11;99294.22;4484740;32;34773;-63
2023/07/29 09:19:11;;;;;;;5.03;2.37;;;;;;;27.29;44.16;99296.97;4498335;31;34806;-61
2023/07/29 09:21:39;;;;;;;5.43;2.53;;;;;;;27.30;44.17;99292.31;4500252;31;34055;-66
2023/07/29 09:24:07;;;;;;;5.12;2.20;;;;;;;27.28;44.11;99281.62;4499460;31;34268;-62
2023/07/29 09:26:35;;;;;;;4.05;2.33;;;;;;;27.29;44.01;99287.94;4498103;31;33836;-65
2023/07/29 09:29:03;;;;;;;4.45;2.62;;;;;;;27.28;43.97;99287.09;4500482;31;33883;-62
2023/07/29 09:31:31;;;;;;;7.25;2.70;;;;;;;27.26;43.94;99281.03;4500160;31;34214;-65
2023/07/29 09:34:00;;;;;;;6.15;2.58;;;;;;;27.25;43.96;99271.19;4499612;31;33563;-62
2023/07/29 09:36:32;;;;;;;4.30;2.28;;;;;;;27.24;43.94;99276.94;4500473;31;34088;-62
2023/07/29 09:39:00;;;;;;;7.37;2.58;;;;;;;27.23;43.91;99273.34;4499131;31;34191;-63
2023/07/29 09:41:28;;;;;;;5.50;2.53;;;;;;;27.24;43.86;99265.97;4500650;31;34722;-61
2023/07/29 09:43:57;;;;;;;4.32;2.28;;;;;;;27.22;43.86;99268.97;4486334;31;33308;-62
2023/07/29 09:46:26;;;;;;;3.85;2.25;;;;;;;27.21;43.85;99268.16;4500493;31;33812;-62
2023/07/29 09:48:55;;;;;;;5.60;2.03;;;;;;;27.21;43.82;99265.41;4500433;31;34069;-62
2023/07/29 09:51:23;;;;;;;3.87;2.40;;;;;;;27.21;43.81;99268.16;4500049;31;34628;-64
2023/07/29 09:53:52;;;;;;;4.65;2.30;;;;;;;27.21;43.78;99264.59;4486012;31;33697;-62
2023/07/29 09:56:26;;;;;;;5.80;2.42;;;;;;;27.19;43.79;99259.38;4499470;31;33612;-61
2023/07/29 09:58:57;;;;;;;5.35;2.17;;;;;;;27.19;43.78;99259.38;4500333;31;33854;-61
2023/07/29 10:01:25;;;;;;;4.15;2.30;;;;;;;27.18;43.78;99256.88;4499382;31;33792;-61
2023/07/29 10:03:52;;;;;;;4.80;2.47;;;;;;;27.19;43.73;99266.78;4500249;31;33369;-65
2023/07/29 10:06:21;;;;;;;6.05;2.17;;;;;;;27.17;43.74;99255.25;4486715;31;33677;-63
2023/07/29 10:08:48;;;;;;;5.40;2.33;;;;;;;27.18;43.72;99256.88;4484854;32;34001;-62
2023/07/29 10:11:18;;;;;;;4.70;2.40;;;;;;;27.17;43.69;99249.75;4484406;32;34493;-62
2023/07/29 10:13:45;;;;;;;5.07;2.43;;;;;;;27.17;43.65;99253.31;4483557;32;34203;-63
2023/07/29 10:16:31;;;;;;;4.87;2.53;;;;;;;27.17;43.61;99252.50;4483429;32;34713;-62
2023/07/29 10:18:58;;;;;;;5.57;2.55;;;;;;;27.17;43.60;99241.56;4483078;32;34024;-62
2023/07/29 10:21:26;;;;;;;4.75;2.30;;;;;;;27.16;43.61;99248.94;4483198;31;34076;-64
2023/07/29 10:23:54;;;;;;;3.90;1.92;;;;;;;27.16;43.59;99246.22;4500025;31;33486;-66
2023/07/29 10:26:21;;;;;;;4.72;2.33;;;;;;;27.15;43.59;99243.75;4498764;31;33594;-61
2023/07/29 10:28:49;;;;;;;4.62;2.12;;;;;;;27.14;43.57;99247.53;4498986;31;33806;-62
2023/07/29 10:31:17;;;;;;;3.50;2.10;;;;;;;27.14;43.55;99248.41;4485750;31;34071;-62
2023/07/29 10:33:44;;;;;;;4.53;2.40;;;;;;;27.15;43.54;99241.81;4498881;31;33271;-60
2023/07/29 10:36:12;;;;;;;3.97;2.00;;;;;;;27.15;43.50;99241.81;4500048;31;34655;-61
2023/07/29 10:38:40;;;;;;;6.05;2.20;;;;;;;27.14;43.49;99242.91;4499173;31;33733;-61
2023/07/29 10:41:08;;;;;;;5.10;2.17;;;;;;;27.14;43.50;99245.66;4498849;31;33943;-65
2023/07/29 10:43:37;;;;;;;4.65;2.10;;;;;;;27.13;43.50;99233.03;4500107;31;33587;-62
2023/07/29 10:46:16;;;;;;;4.22;2.42;;;;;;;27.13;43.48;99238.50;4498714;31;34737;-62
2023/07/29 10:48:54;;;;;;;4.87;2.17;;;;;;;27.15;43.41;99236.34;4500123;31;33877;-61
2023/07/29 10:51:26;;;;;;;4.65;2.65;;;;;;;27.16;43.40;99242.66;4499759;31;35039;-64
2023/07/29 10:53:57;;;;;;;5.25;2.37;;;;;;;27.14;43.41;99239.31;4499954;31;33718;-63
2023/07/29 10:56:29;;;;;;;3.95;2.00;;;;;;;27.13;43.43;99243.97;4499636;31;34050;-62
2023/07/29 10:58:59;;;;;;;4.55;2.30;;;;;;;27.13;43.42;99233.03;4498501;31;34015;-62
2023/07/29 11:01:32;;;;;;;6.00;2.47;;;;;;;27.13;43.40;99234.94;4499896;31;33874;-62
2023/07/29 11:04:24;;;;;;;4.22;2.03;;;;;;;27.13;43.37;99238.50;4499661;31;33719;-61
2023/07/29 11:07:04;;;;;;;5.35;2.25;;;;;;;27.14;43.36;99237.44;4499470;31;33980;-62
2023/07/29 11:09:47;;;;;;;;;;;;;;;27.14;43.36;99236.59;4499860;31;34419;-62
2023/07/29 11:12:47;;;;;;;3.55;2.08;;;;;;;27.21;43.17;99243.50;4499868;31;35057;-62
2023/07/29 11:15:30;;;;;;;3.85;2.03;;;;;;;27.15;43.30;99241.00;4499772;31;33659;-62
2023/07/29 11:17:59;;;;;;;4.18;2.17;;;;;;;27.11;43.36;99242.62;4499557;31;33577;-62
2023/07/29 11:20:28;;;;;;;4.73;2.10;;;;;;;27.10;43.37;99236.31;4499671;31;34157;-62
2023/07/29 11:22:56;;;;;;;4.78;2.17;;;;;;;27.10;43.35;99236.31;4489333;31;34057;-63
2023/07/29 11:25:25;;;;;;;5.85;2.05;;;;;;;27.08;43.37;99232.16;4483700;32;33609;-62
2023/07/29 11:27:55;;;;;;;3.87;2.08;;;;;;;27.09;43.35;99222.87;4482815;32;33535;-62
2023/07/29 11:30:29;;;;;;;4.25;2.10;;;;;;;27.09;43.34;99231.09;4483502;32;34033;-66
2023/07/29 11:32:57;;;;;;;4.10;2.03;;;;;;;27.09;43.32;99229.19;4483672;32;34192;-62
2023/07/29 11:38:15;;;;;;;4.00;1.98;;;;;;;27.09;43.28;99234.69;4483611;32;33297;-62
2023/07/29 11:40:43;;;;;;;5.12;1.92;;;;;;;27.09;43.29;99234.69;4469718;32;34062;-61
2023/07/29 11:43:17;;;;;;;5.07;1.90;;;;;;;27.11;43.26;99228.94;4482116;31;34257;-62
2023/07/29 11:45:45;;;;;;;3.87;2.00;;;;;;;27.09;43.26;99229.19;4482124;32;33291;-61